Date,TemperatureHighF,TemperatureAvgF,TemperatureLowF,DewpointHighF,DewpointAvgF,DewpointLowF,HumidityHigh,HumidityAvg,HumidityLow,PressureMaxIn,PressureMinIn,WindSpeedMaxMPH,WindSpeedAvgMPH,GustSpeedMaxMPH,PrecipitationSumIn
2013-1-1,44.1,41.5,36.9,44.1,38.2,16.7,100,90,41,30.16,29.97,10,2,10,0.71
2013-1-2,42.9,38.7,34.2,41.3,37.6,34.2,100,96,79,30.15,29.93,14,3,14,0.07
2013-1-3,41.4,33.4,24.0,35.7,29.8,17.5,100,87,56,30.32,30.10,13,2,14,0.00
2013-1-4,42.9,28.6,20.8,24.1,17.0,11.0,91,64,33,30.42,30.31,9,3,10,0.00
2013-1-5,49.7,38.5,21.7,36.0,12.8,-6.8,95,42,11,30.46,30.24,17,3,18,0.03
2013-1-6,49.2,37.7,28.5,39.2,32.1,23.8,100,82,44,30.24,30.09,14,3,14,0.01
2013-1-7,48.2,33.9,25.3,25.3,22.8,15.9,91,67,31,30.45,30.20,21,6,22,0.00
2013-1-8,47.9,39.0,27.1,45.6,35.6,20.3,100,88,62,30.49,30.40,13,3,15,0.00
2013-1-9,53.2,49.7,45.2,52.2,49.5,45.2,100,99,91,30.49,30.42,8,1,8,0.01
2013-1-10,55.0,51.0,47.9,50.7,48.5,47.3,100,91,79,30.48,30.28,32,7,32,0.02
2013-1-11,55.4,51.5,47.8,55.4,51.5,47.8,100,100,100,30.28,30.16,30,7,31,0.74
2013-1-12,61.6,55.9,53.1,59.6,55.3,53.1,100,98,89,30.19,30.08,18,4,19,0.06
2013-1-13,54.7,53.4,51.6,54.7,53.3,51.6,100,100,98,30.09,30.06,21,6,21,0.43
2013-1-14,56.3,54.8,53.1,56.3,54.8,53.1,100,100,100,30.11,30.03,18,3,18,1.67
2013-1-15,54.1,51.8,49.8,54.1,51.8,49.8,100,100,100,30.09,29.98,17,6,17,1.34
2013-1-16,55.9,50.8,46.2,55.0,50.6,46.1,100,99,86,30.00,29.92,14,2,14,0.73
2013-1-17,48.5,43.3,26.9,48.5,43.2,24.6,100,100,90,30.15,29.67,19,3,20,0.72
2013-1-18,43.4,31.8,21.6,30.5,23.1,17.6,93,71,42,30.57,30.17,14,3,14,0.92
2013-1-19,51.1,36.9,25.7,25.9,20.9,6.0,87,56,21,30.54,30.25,15,2,18,0.23
2013-1-20,53.2,39.2,32.1,34.9,24.2,12.5,76,56,34,30.25,30.13,15,4,15,0.01
2013-1-21,47.7,34.9,23.2,29.4,20.3,12.5,72,55,44,30.14,30.01,22,4,22,0.00
2013-1-22,34.2,23.6,15.8,13.3,9.2,3.8,69,55,31,30.30,29.96,22,4,22,0.00
2013-1-23,41.9,30.0,20.6,26.4,20.2,11.3,79,67,49,30.39,30.14,18,3,18,0.00
2013-1-24,42.6,33.2,18.2,30.0,15.5,-0.6,87,53,19,30.41,30.03,32,5,32,0.00
2013-1-25,39.5,25.7,14.4,39.5,22.4,4.8,100,87,62,30.42,30.21,18,5,22,0.18
2013-1-26,47.6,36.2,29.2,35.0,23.8,14.9,99,64,31,30.37,30.19,15,3,15,0.00
2013-1-27,44.1,34.2,25.9,32.7,26.9,9.6,95,76,30,30.51,30.36,11,5,11,0.00
2013-1-28,56.6,43.7,31.6,49.6,40.9,27.4,100,90,70,30.50,30.30,11,2,13,0.00
2013-1-29,59.6,50.7,43.9,54.4,48.2,37.6,100,92,69,30.31,30.03,23,4,23,0.27
2013-1-30,55.5,49.9,35.2,55.5,49.9,35.1,100,100,100,30.03,29.45,37,9,37,2.58
2013-1-31,35.2,27.4,20.7,35.2,23.1,18.8,100,84,64,30.13,29.51,21,4,21,0.22
2013-2-1,30.7,23.3,14.5,26.7,13.2,4.4,96,66,42,30.41,30.03,23,3,23,0.04
2013-2-2,45.4,27.2,14.6,31.6,15.3,-10.5,99,67,23,30.43,30.11,13,2,18,0.08
2013-2-3,35.4,27.9,23.0,31.0,24.9,19.9,97,89,71,30.11,29.95,22,5,24,0.22
2013-2-4,41.9,32.2,21.3,25.2,20.5,14.5,89,63,45,30.22,30.05,17,3,17,0.10
2013-2-5,49.7,39.2,34.4,39.4,29.1,18.2,93,68,49,30.07,29.98,12,2,13,0.01
2013-2-6,54.7,42.6,31.8,35.2,25.8,14.4,91,57,27,30.24,30.04,13,2,13,0.00
2013-2-7,44.1,39.1,35.8,38.7,33.0,22.9,100,81,49,30.22,29.98,21,5,21,0.24
2013-2-8,45.1,37.1,27.5,45.1,35.3,23.9,100,94,76,30.09,29.93,18,3,22,0.01
2013-2-9,53.4,40.9,25.9,24.7,19.6,9.7,90,47,19,30.37,30.09,15,5,16,0.00
2013-2-10,42.5,36.5,32.7,42.4,24.5,17.1,100,63,39,30.37,30.21,29,10,29,0.67
2013-2-11,51.1,44.6,37.2,50.8,41.5,22.3,100,90,53,30.22,30.02,17,3,17,0.32
2013-2-12,51.7,39.1,32.1,34.0,27.0,6.8,96,65,18,30.11,29.91,17,4,17,0.12
2013-2-13,45.2,34.8,27.4,42.9,33.9,26.1,100,97,80,29.92,29.67,22,6,22,0.04
2013-2-14,49.4,33.7,24.0,32.9,25.7,15.8,99,76,29,30.12,29.90,13,3,13,0.00
2013-2-15,52.3,38.0,29.2,34.2,29.8,26.6,97,75,42,30.14,29.97,12,2,12,0.01
2013-2-16,36.2,24.1,13.0,28.3,19.0,6.7,96,82,53,30.04,29.85,18,3,18,0.00
2013-2-17,32.2,20.0,10.4,16.2,9.0,4.3,79,63,41,30.36,30.02,22,5,22,0.01
2013-2-18,46.2,33.0,21.0,28.7,19.9,11.7,72,59,40,30.45,30.23,22,6,24,0.00
2013-2-19,43.1,33.3,24.9,37.1,25.9,13.9,100,76,51,30.23,29.94,23,5,23,0.23
2013-2-20,44.4,30.6,20.3,14.7,8.0,-3.3,67,41,21,30.22,30.05,19,5,19,0.00
2013-2-21,61.4,42.7,32.5,32.5,6.9,-28.8,97,31,4,30.24,30.09,18,4,18,0.40
2013-2-22,46.4,35.7,28.5,46.3,35.5,28.2,100,99,97,30.23,30.11,26,4,26,0.41
2013-2-23,50.4,45.3,37.5,50.2,45.3,37.5,100,100,100,30.16,29.83,11,2,11,0.35
2013-2-24,55.3,40.8,30.5,38.0,28.3,15.7,100,67,29,30.07,29.85,11,3,11,0.01
2013-2-25,42.4,37.3,32.0,33.2,25.5,9.5,99,64,27,30.10,29.97,27,8,27,0.00
2013-2-26,40.4,35.6,30.8,40.4,35.6,30.7,100,100,99,29.97,29.61,38,9,38,1.22
2013-2-27,51.2,36.2,28.2,38.2,30.5,27.1,100,82,49,29.87,29.69,18,3,18,0.00
2013-2-28,31.7,26.7,23.1,28.0,23.3,20.9,93,87,80,29.95,29.72,18,3,18,0.00
2013-3-1,36.2,27.3,21.6,28.2,24.1,20.5,97,88,71,30.01,29.94,12,3,12,0.00
2013-3-2,32.9,25.2,17.2,28.7,23.0,15.4,97,91,77,29.97,29.90,16,3,16,0.07
2013-3-3,34.1,21.0,13.6,20.2,15.0,11.4,93,79,52,30.08,29.95,15,4,15,0.01
2013-3-4,49.9,31.7,14.9,27.6,17.6,9.9,88,60,22,30.25,30.06,15,3,15,0.00
2013-3-5,47.6,39.0,25.5,47.4,36.3,23.5,100,91,62,30.17,29.66,22,3,22,0.64
2013-3-6,30.1,23.4,18.1,27.2,21.5,16.8,97,92,84,30.21,29.64,24,6,24,0.04
2013-3-7,50.6,33.1,20.3,33.1,24.3,18.7,97,74,33,30.33,30.20,18,4,18,0.01
2013-3-8,55.0,40.7,27.9,24.5,16.5,6.4,80,41,22,30.32,30.26,10,2,10,0.00
2013-3-9,58.0,46.1,37.0,30.1,24.3,18.2,59,43,31,30.31,30.23,12,4,12,0.00
2013-3-10,55.9,45.6,38.4,34.6,30.1,26.0,67,55,37,30.27,30.16,22,10,22,0.00
2013-3-11,47.1,44.1,41.9,47.0,43.4,34.2,100,98,66,30.17,29.83,31,12,31,1.12
2013-3-12,55.4,43.9,31.3,47.3,37.5,25.2,100,81,45,30.01,29.77,16,3,16,0.28
2013-3-13,41.9,31.3,20.6,27.3,22.1,15.5,83,69,46,30.16,29.98,19,4,19,0.00
2013-3-14,45.5,28.8,15.9,18.7,13.7,8.0,87,58,28,30.37,30.15,17,3,17,0.00
2013-3-15,63.4,45.3,27.8,40.4,32.4,16.6,90,63,34,30.27,30.00,15,3,15,0.00
2013-3-16,70.5,55.8,47.5,47.1,42.0,38.0,74,61,38,30.01,29.80,17,2,17,0.00
2013-3-17,67.5,54.1,47.9,48.0,43.5,39.8,88,69,39,29.96,29.86,14,3,14,0.00
2013-3-18,48.2,42.3,38.7,46.1,41.9,38.7,100,99,87,29.97,29.87,16,6,16,0.45
2013-3-19,54.9,42.3,32.3,42.8,29.1,11.8,100,65,29,30.09,29.89,14,2,14,0.00
2013-3-20,49.2,34.7,26.1,26.4,13.4,5.1,94,43,22,30.14,29.90,14,2,14,0.00
2013-3-21,36.7,24.5,14.7,24.1,12.2,5.0,92,61,38,30.04,29.77,18,3,18,0.02
2013-3-22,40.6,30.0,18.6,29.7,18.8,9.9,81,64,35,30.14,30.03,8,1,8,0.00
2013-3-23,55.2,41.3,33.8,48.6,39.3,29.2,100,93,77,30.13,29.88,21,2,21,0.08
2013-3-24,44.4,38.8,32.5,44.1,38.7,32.5,100,100,97,29.94,29.52,19,5,19,0.91
2013-3-25,32.8,24.6,19.9,32.8,22.6,18.5,100,92,83,29.98,29.54,10,0,10,0.04
2013-3-26,34.4,24.1,18.8,28.0,21.2,17.6,96,89,71,30.27,29.96,15,2,15,0.02
2013-3-27,44.7,29.6,18.7,27.3,20.7,16.0,92,71,41,30.37,30.25,15,3,17,0.00
2013-3-28,50.4,34.4,22.4,23.6,18.1,10.1,85,56,22,30.38,30.29,15,3,15,0.00
2013-3-29,51.2,36.3,29.6,35.4,25.1,11.8,99,67,29,30.39,30.30,11,2,11,0.05
2013-3-30,56.7,43.9,34.4,42.3,37.3,34.2,99,80,51,30.30,30.10,11,3,11,0.11
2013-3-31,57.7,48.0,41.8,50.7,46.5,40.6,100,95,76,30.10,29.87,12,2,12,0.45
2013-4-1,60.9,47.6,39.2,46.6,40.1,32.9,100,78,45,29.99,29.85,18,3,18,0.01
2013-4-2,59.7,43.3,30.8,33.0,22.7,6.3,87,51,17,30.15,29.97,19,3,19,0.00
2013-4-3,54.2,42.5,33.4,29.1,25.8,22.4,71,53,31,30.27,30.12,19,4,19,0.00
2013-4-4,40.2,33.0,28.4,34.3,30.0,24.9,100,90,55,30.25,30.02,22,4,22,0.53
2013-4-5,56.4,42.9,33.8,44.0,35.4,28.2,100,78,37,30.12,29.97,17,2,17,0.01
2013-4-6,61.2,47.8,37.8,35.0,30.9,26.7,75,53,32,30.23,30.10,15,5,15,0.00
2013-4-7,61.9,50.3,41.0,43.9,37.7,29.9,74,62,50,30.21,30.13,16,4,16,0.00
2013-4-8,65.7,55.8,48.9,52.6,47.2,42.1,92,73,55,30.15,30.08,14,3,14,0.00
2013-4-9,73.3,60.9,52.6,54.9,51.5,48.4,89,72,50,30.19,30.10,15,3,15,0.00
2013-4-10,75.6,63.3,54.1,57.0,52.6,48.2,88,70,44,30.12,29.92,15,4,16,0.00
2013-4-11,62.1,57.6,52.8,59.6,53.2,50.5,100,86,73,29.93,29.65,31,5,31,0.98
2013-4-12,67.1,55.2,41.9,54.6,45.8,33.9,100,74,38,29.82,29.60,23,3,23,1.07
2013-4-13,68.5,51.5,39.2,39.3,33.3,26.5,85,54,23,30.08,29.79,18,4,18,0.00
2013-4-14,60.2,51.0,44.7,45.7,37.7,28.2,100,63,40,30.09,29.95,28,8,31,0.14
2013-4-15,66.3,52.6,44.8,58.3,51.1,44.8,100,95,70,30.22,29.96,17,5,17,0.12
2013-4-16,71.8,57.7,51.6,60.0,54.7,51.6,100,91,63,30.30,30.20,15,4,15,0.01
2013-4-17,74.8,59.2,54.2,61.6,55.8,52.4,99,89,60,30.24,30.10,16,2,16,1.04
2013-4-18,62.8,57.3,53.3,57.0,54.8,51.9,100,92,74,30.11,29.93,27,10,27,0.00
2013-4-19,57.8,52.0,34.1,57.8,50.8,32.1,100,96,71,29.94,29.71,40,8,40,1.29
2013-4-20,55.2,40.9,28.6,32.7,27.6,20.3,95,63,28,30.33,29.85,25,4,25,0.00
2013-4-21,56.4,44.2,37.6,35.2,29.7,24.8,81,57,39,30.43,30.32,22,6,22,0.00
2013-4-22,59.7,45.4,35.1,40.3,35.8,32.6,94,71,39,30.40,30.24,17,6,17,0.00
2013-4-23,64.8,50.2,36.8,45.3,36.8,25.5,81,61,41,30.30,30.15,16,4,16,0.00
2013-4-24,66.1,53.2,47.6,55.0,48.9,42.5,99,86,62,30.17,30.06,18,2,18,0.08
2013-4-25,65.8,50.5,37.3,51.4,31.4,11.9,100,59,14,30.32,30.06,13,2,13,0.00
2013-4-26,62.5,50.5,40.1,38.7,30.9,22.0,67,48,33,30.42,30.31,17,5,17,0.00
2013-4-27,49.9,45.1,41.9,46.1,43.4,38.4,100,94,65,30.40,30.26,19,3,19,0.64
2013-4-28,49.4,46.0,42.6,49.3,46.0,42.6,100,100,100,30.28,30.07,20,6,20,1.78
2013-4-29,66.2,53.2,46.3,56.2,50.5,46.2,100,91,53,30.10,29.96,14,3,14,0.05
2013-4-30,66.2,56.1,49.7,55.2,51.2,47.5,99,84,60,30.15,29.98,16,4,16,0.00
2013-5-1,60.7,53.2,47.7,52.9,49.3,47.3,100,87,67,30.23,30.13,23,6,23,0.00
2013-5-2,53.3,49.4,47.8,53.3,49.2,46.9,100,99,95,30.26,30.19,23,8,23,0.02
2013-5-3,49.2,47.1,45.5,48.7,47.0,45.5,100,99,93,30.21,30.07,38,10,38,0.25
2013-5-4,45.9,42.6,38.8,45.9,42.6,38.8,100,100,100,30.08,29.93,38,14,38,0.96
2013-5-5,45.6,44.1,41.9,45.6,44.1,41.9,100,100,100,29.98,29.83,36,12,36,1.98
2013-5-6,53.4,44.2,39.0,46.3,42.7,38.6,100,95,71,29.95,29.80,25,6,25,0.30
2013-5-7,60.2,46.5,37.8,48.6,42.6,37.1,100,87,58,30.02,29.91,14,2,14,0.05
2013-5-8,60.9,51.4,43.8,53.5,48.2,42.7,100,89,73,30.06,29.96,10,2,10,0.00
2013-5-9,72.4,60.7,56.7,51.7,49.8,45.8,79,68,43,30.11,30.05,8,1,8,0.01
2013-5-10,69.3,59.7,54.4,60.0,53.4,49.2,98,80,60,30.11,29.94,16,2,16,0.05
2013-5-11,67.2,56.6,50.8,58.4,53.4,50.0,100,90,66,29.97,29.85,13,2,13,0.12
2013-5-12,61.6,49.2,38.8,50.5,38.8,28.7,99,71,36,30.07,29.84,13,3,13,0.01
2013-5-13,60.4,45.2,34.4,35.9,29.6,23.2,80,57,30,30.24,30.04,19,3,19,0.00
2013-5-14,70.5,53.9,36.7,49.9,39.4,27.5,77,59,41,30.28,30.15,10,1,10,0.00
2013-5-15,73.7,58.4,51.7,58.0,51.2,48.7,91,78,53,30.16,30.10,16,4,16,0.00
2013-5-16,73.3,73.3,73.3,56.2,56.2,56.2,55,55,55,30.11,30.11,2,2,3,0.00
2013-5-17,73.3,73.3,73.3,56.2,56.2,56.2,55,55,55,30.11,30.11,2,2,3,0.00
2013-5-18,73.3,73.3,73.3,56.2,56.2,56.2,55,55,55,30.11,30.11,2,2,3,0.00
2013-5-19,73.3,73.3,73.3,56.2,56.2,56.2,55,55,55,30.11,30.11,2,2,3,0.00
2013-5-20,73.3,72.8,60.8,61.2,56.4,56.2,100,57,55,30.11,30.03,4,2,4,0.11
2013-5-21,77.5,63.7,58.0,67.5,60.9,51.5,100,91,55,30.04,29.93,16,2,16,0.06
2013-5-22,73.0,62.5,56.4,68.5,60.7,53.4,100,94,75,30.00,29.86,14,2,14,0.33
2013-5-23,72.0,60.8,53.0,63.6,56.7,49.8,100,88,57,29.92,29.86,11,2,11,0.47
2013-5-24,64.5,53.9,43.5,51.0,42.9,29.7,98,69,38,30.22,29.90,16,2,16,0.04
2013-5-25,72.0,54.6,38.3,46.5,37.0,25.1,90,55,23,30.33,30.21,12,2,12,0.00
2013-5-26,68.3,56.5,48.6,54.8,41.9,28.5,89,59,38,30.27,30.19,10,1,10,0.01
2013-5-27,71.2,60.6,52.1,58.0,52.3,43.8,89,74,56,30.25,30.16,11,3,11,0.00
2013-5-28,72.0,62.1,55.5,63.4,57.0,54.2,96,84,64,30.21,30.14,13,3,13,0.00
2013-5-29,74.0,62.9,54.7,63.0,57.5,52.3,100,84,62,30.21,30.15,14,4,14,0.00
2013-5-30,72.3,62.1,56.7,64.6,58.0,55.4,100,87,67,30.24,30.15,11,4,11,0.00
2013-5-31,59.3,58.4,57.3,58.7,57.7,56.3,100,97,93,30.20,30.14,11,4,11,0.00
2013-6-1,70.0,64.5,61.1,62.6,60.9,59.6,99,88,73,30.09,30.01,10,4,13,0.09
2013-6-2,67.0,61.7,58.9,67.0,61.7,58.9,100,100,99,30.04,29.88,10,2,13,0.73
2013-6-3,72.5,63.0,57.2,66.2,59.4,54.9,100,89,65,29.96,29.86,4,1,8,0.00
2013-6-4,73.9,63.6,56.0,64.3,58.3,52.9,98,84,58,30.04,29.93,9,3,14,0.00
2013-6-5,70.8,62.6,56.1,65.5,61.1,56.1,100,95,79,30.04,29.92,13,5,18,1.32
2013-6-6,68.3,60.6,55.8,65.6,60.3,55.4,100,99,90,29.94,29.78,7,2,9,0.12
2013-6-7,75.7,63.1,57.3,69.0,60.9,57.3,100,93,60,29.82,29.66,5,1,7,0.21
2013-6-8,73.3,62.2,55.2,64.6,59.4,55.2,100,92,57,30.09,29.81,5,1,7,0.08
2013-6-9,71.7,62.4,58.6,66.9,61.8,58.6,100,98,81,30.12,30.00,15,4,23,1.72
2013-6-10,69.4,61.6,57.8,65.9,60.1,57.2,100,95,76,30.01,29.92,12,2,16,1.28
2013-6-11,75.6,65.1,58.0,67.3,60.9,58.0,100,87,58,30.02,29.93,6,1,9,0.26
2013-6-12,80.5,68.3,60.2,72.8,65.1,58.9,100,90,71,30.04,29.94,7,2,13,0.00
2013-6-13,80.4,67.3,58.7,70.3,63.7,58.7,100,89,63,29.94,29.68,12,2,18,0.58
2013-6-14,72.2,61.0,50.6,60.0,54.5,50.6,100,81,54,30.05,29.77,17,2,17,0.01
2013-6-15,73.8,62.1,54.9,61.7,54.7,45.6,94,77,56,30.13,30.05,8,1,8,0.00
2013-6-16,74.6,64.2,56.6,65.2,59.3,53.4,98,85,64,30.14,30.03,5,1,8,0.00
2013-6-17,75.7,64.8,59.0,69.1,63.4,59.0,100,96,75,30.05,29.93,4,0,7,0.43
2013-6-18,71.0,63.2,59.7,67.7,62.7,59.7,100,98,86,29.94,29.79,8,1,8,0.07
2013-6-19,68.5,61.8,56.4,65.0,60.5,56.4,100,96,84,30.11,29.89,7,2,9,0.01
2013-6-20,70.3,61.8,56.6,65.2,60.3,56.6,100,95,78,30.22,30.10,13,4,14,0.01
2013-6-21,71.1,62.5,57.7,66.0,60.1,57.5,100,92,74,30.25,30.18,13,4,15,0.00
2013-6-22,73.9,63.0,56.1,64.3,58.5,49.6,100,87,45,30.23,30.12,9,2,10,0.00
2013-6-23,73.3,63.8,58.6,68.3,62.0,56.4,100,94,75,30.20,30.12,9,3,10,0.14
2013-6-24,73.0,65.1,61.0,69.4,64.6,61.0,100,98,83,30.20,30.09,8,1,8,0.44
2013-6-25,76.0,66.2,59.9,69.4,63.4,59.3,100,91,69,30.15,30.02,6,1,7,0.00
2013-6-26,76.3,66.0,60.1,71.1,64.5,59.3,100,95,77,30.04,29.92,7,1,7,0.19
2013-6-27,76.9,67.4,60.6,72.4,65.8,60.6,100,95,83,29.97,29.75,5,1,9,0.41
2013-6-28,77.4,67.3,61.3,71.6,64.6,61.2,100,92,72,29.81,29.61,7,2,9,0.01
2013-6-29,74.8,65.1,58.4,65.6,59.8,56.0,98,84,61,29.70,29.60,5,1,7,0.00
2013-6-30,73.3,64.6,58.6,64.9,59.6,54.7,100,85,63,29.80,29.67,7,2,10,0.18
2013-7-1,70.9,61.9,58.3,67.0,61.2,58.3,100,98,83,29.94,29.77,9,2,14,1.47
2013-7-2,69.7,63.0,58.5,67.1,62.2,58.5,100,97,81,30.11,29.92,13,5,18,0.99
2013-7-3,64.1,61.2,57.1,64.1,61.2,57.1,100,100,100,30.20,30.07,19,4,19,2.74
2013-7-4,64.3,60.9,59.1,64.3,60.9,59.1,100,100,100,30.21,30.14,16,7,23,3.26
2013-7-5,69.5,62.7,59.9,66.4,62.3,59.9,100,99,87,30.24,30.15,17,5,21,1.96
2013-7-6,66.5,62.9,59.6,66.4,62.9,59.6,100,100,99,30.20,30.10,23,6,23,2.90
2013-7-7,69.6,64.2,61.7,68.8,64.0,61.7,100,100,92,30.16,30.09,13,2,14,0.32
2013-7-8,77.5,66.2,61.3,70.2,64.8,61.3,100,96,68,30.20,30.10,7,1,8,0.31
2013-7-9,74.7,67.0,61.8,72.3,66.5,61.8,100,98,83,30.16,30.05,10,1,10,0.13
2013-7-10,75.5,67.2,64.1,72.1,66.6,64.0,100,98,80,30.10,29.93,10,2,10,0.49
2013-7-11,72.2,66.1,62.5,69.5,65.6,62.5,100,99,88,29.95,29.85,8,1,9,0.01
2013-7-12,77.0,65.0,58.0,69.6,62.8,56.0,100,94,57,29.96,29.86,20,2,20,0.09
2013-7-13,64.8,60.5,56.8,64.8,60.5,56.8,100,100,93,30.10,29.94,14,6,19,0.18
2013-7-14,64.5,62.6,61.7,64.5,62.6,61.7,100,100,100,30.25,30.08,27,9,39,1.06
2013-7-15,70.8,64.3,60.4,68.1,63.6,60.4,100,98,85,30.33,30.25,19,6,22,0.02
2013-7-16,77.3,68.8,62.1,71.4,66.4,62.1,100,93,71,30.32,30.23,14,3,14,0.01
2013-7-17,80.0,68.6,63.4,72.8,66.4,63.3,100,93,69,30.26,30.13,7,2,7,0.13
2013-7-18,75.3,67.6,60.7,72.2,65.6,60.5,100,94,81,30.18,30.06,12,3,12,0.00
2013-7-19,78.5,68.5,62.3,70.2,65.6,61.5,100,91,60,30.11,29.98,9,1,9,0.01
2013-7-20,76.1,67.1,63.9,71.3,65.9,63.5,100,96,78,30.02,29.92,7,1,7,0.04
2013-7-21,77.8,66.6,62.5,71.9,65.4,62.4,100,96,75,30.00,29.90,10,2,10,1.11
2013-7-22,75.7,66.6,61.4,70.4,64.9,61.4,100,95,74,29.98,29.84,11,1,11,0.03
2013-7-23,77.0,66.2,59.8,71.0,64.1,59.8,100,93,75,29.90,29.78,10,2,10,0.01
2013-7-24,77.8,65.8,59.8,70.5,63.9,59.0,100,94,71,29.84,29.75,12,2,13,0.34
2013-7-25,73.8,63.9,58.3,69.6,62.2,58.3,100,95,73,30.02,29.84,11,2,11,0.72
2013-7-26,71.8,63.6,58.6,68.7,62.5,58.0,100,96,85,30.08,30.00,10,3,10,0.12
2013-7-27,70.8,64.5,61.7,66.8,63.3,60.6,100,96,73,30.02,29.89,9,2,9,0.05
2013-7-28,74.7,64.5,58.4,68.1,61.6,58.4,100,91,68,30.02,29.89,7,1,7,0.00
2013-7-29,74.0,63.9,57.1,62.2,55.0,41.9,100,75,42,30.18,30.00,6,1,7,0.01
2013-7-30,75.8,66.5,59.3,65.8,61.2,54.9,100,84,53,30.19,30.12,7,1,7,0.00
2013-7-31,67.3,63.9,62.3,65.5,63.6,62.3,100,99,92,30.14,29.95,10,2,11,0.04
2013-8-1,76.3,66.3,61.1,71.2,64.1,59.7,100,93,74,29.99,29.88,8,1,8,0.01
2013-8-2,73.5,65.2,58.1,69.2,63.5,58.1,100,94,79,30.03,29.91,9,2,9,0.00
2013-8-3,74.3,66.3,61.4,68.2,62.4,58.0,100,88,70,30.03,29.96,3,1,5,0.01
2013-8-4,76.3,66.1,60.2,69.3,63.1,56.6,100,91,71,30.03,29.96,14,2,14,0.00
2013-8-5,73.3,65.4,60.0,67.8,62.3,55.6,100,90,77,30.03,29.97,6,2,7,0.00
2013-8-6,74.4,66.2,61.8,69.2,64.9,61.4,100,96,76,30.02,29.92,13,2,13,0.06
2013-8-7,65.5,64.0,62.7,65.5,64.0,62.7,100,100,100,30.05,29.98,7,2,8,0.23
2013-8-8,72.0,65.9,63.3,71.5,65.8,63.2,100,100,96,30.06,30.00,9,1,9,0.11
2013-8-9,76.5,67.6,63.7,72.7,66.9,63.6,100,98,82,30.09,30.02,8,1,9,0.02
2013-8-10,76.7,68.3,64.4,72.7,67.2,64.4,100,97,84,30.10,30.03,7,1,7,0.06
2013-8-11,77.0,67.7,62.7,72.7,66.5,62.7,100,96,80,30.12,30.05,5,1,6,0.04
2013-8-12,78.8,68.3,63.2,72.3,66.5,63.2,100,94,75,30.10,29.96,7,1,7,0.01
2013-8-13,74.0,65.4,60.9,71.2,64.8,60.9,100,98,85,29.97,29.83,9,1,9,0.20
2013-8-14,71.4,61.9,55.9,66.8,60.8,55.9,100,96,74,30.04,29.86,14,2,14,0.06
2013-8-15,62.1,55.9,51.4,59.7,55.3,51.4,100,98,85,30.14,30.02,18,5,18,0.00
2013-8-16,61.1,55.2,51.7,58.3,53.8,51.6,100,95,82,30.18,30.08,17,5,17,0.00
2013-8-17,61.9,56.6,52.2,58.3,55.6,50.7,100,96,84,30.18,30.11,17,5,17,0.19
2013-8-18,69.2,60.2,56.8,67.6,60.1,56.8,100,100,93,30.24,30.13,10,2,10,0.25
2013-8-19,67.0,61.4,58.4,66.9,61.4,58.4,100,100,98,30.20,30.08,11,2,11,1.49
2013-8-20,70.1,62.9,57.8,68.3,62.8,57.8,100,99,92,30.20,30.10,13,2,13,0.01
2013-8-21,66.2,62.5,60.6,65.7,62.5,60.6,100,100,94,30.24,30.14,8,1,8,0.18
2013-8-22,74.0,65.8,60.7,69.7,64.7,60.7,100,96,81,30.17,30.05,7,1,7,0.00
2013-8-23,75.3,66.0,59.3,69.3,63.7,59.1,100,93,73,30.07,29.98,7,1,7,0.29
2013-8-24,70.3,62.4,55.8,67.1,60.7,55.2,100,94,83,30.28,30.05,19,4,19,0.01
2013-8-25,67.8,59.0,52.9,63.4,56.5,50.9,100,91,78,30.38,30.28,15,4,15,0.00
2013-8-26,72.0,61.0,53.3,65.7,58.7,53.3,100,93,69,30.35,30.16,8,1,8,0.00
2013-8-27,72.5,63.5,55.8,66.8,61.1,55.0,100,92,75,30.18,30.05,5,1,7,0.01
2013-8-28,76.4,66.6,60.6,70.6,64.6,60.6,100,94,72,30.08,29.97,8,2,8,0.01
2013-8-29,78.3,68.6,61.9,72.9,66.5,61.9,100,93,78,29.98,29.91,8,1,8,0.00
2013-8-30,73.0,66.8,64.3,70.8,66.1,63.2,100,98,87,30.00,29.91,12,3,12,0.00
2013-8-31,77.3,67.0,61.3,71.9,65.5,61.3,100,95,73,29.95,29.87,9,1,9,0.00
2013-9-1,76.6,68.2,62.3,71.7,66.3,62.3,100,94,79,29.91,29.80,9,1,9,0.01
2013-9-2,76.2,66.3,59.8,69.9,64.7,59.8,100,95,75,29.91,29.81,7,1,7,0.00
2013-9-3,74.0,65.2,57.1,69.1,63.1,57.1,100,93,75,29.98,29.84,25,2,25,0.20
2013-9-4,74.5,65.1,60.4,68.2,62.8,58.7,100,92,75,30.10,29.97,8,1,8,0.00
2013-9-5,74.9,65.6,58.4,68.1,62.2,58.2,100,89,65,30.12,30.06,7,1,7,0.01
2013-9-6,73.0,64.1,59.7,65.3,58.9,43.8,99,84,49,30.15,30.05,14,3,14,0.00
2013-9-7,73.3,63.5,56.9,66.2,60.6,56.5,100,91,71,30.11,30.01,6,1,6,0.00
2013-9-8,75.0,64.6,57.8,66.5,61.9,57.8,100,91,70,30.02,29.95,7,1,7,0.01
2013-9-9,75.0,66.0,61.2,67.8,63.0,59.6,100,91,75,30.13,30.01,14,3,14,0.00
2013-9-10,76.2,66.0,60.7,69.8,63.6,59.8,100,92,73,30.23,30.12,10,2,10,0.01
2013-9-11,76.0,65.5,59.9,70.4,63.7,59.9,100,94,78,30.21,30.10,8,1,8,0.01
2013-9-12,76.3,65.6,60.7,69.8,64.0,60.7,100,95,76,30.10,29.88,7,2,7,0.01
2013-9-13,51.0,50.6,50.3,49.0,48.8,48.6,94,94,93,29.89,29.88,4,4,6,0.01
2013-9-14,67.5,55.5,47.3,57.6,51.3,46.6,98,87,65,30.13,29.89,8,3,11,0.00
2013-9-15,67.2,57.8,52.0,60.2,55.8,50.7,100,94,74,30.21,30.13,11,4,15,0.00
2013-9-16,71.7,63.3,57.4,64.2,59.8,57.4,100,89,65,30.18,30.08,5,1,7,0.01
2013-9-17,61.7,56.9,52.8,59.1,55.1,52.5,99,94,80,30.25,30.12,11,5,15,0.00
2013-9-18,66.7,55.8,51.1,60.5,54.4,49.8,100,95,78,30.28,30.18,11,3,14,0.00
2013-9-19,72.4,60.0,53.1,66.1,58.9,53.1,100,97,72,30.20,30.11,7,2,8,0.01
2013-9-20,73.3,62.8,56.8,65.6,60.6,56.8,100,93,64,30.12,29.93,6,1,8,0.01
2013-9-21,61.0,58.8,54.7,60.5,58.7,54.7,100,100,98,29.94,29.67,10,2,14,1.27
2013-9-22,68.3,57.5,49.4,61.5,54.9,49.4,100,92,62,29.91,29.74,5,2,7,0.00
2013-9-23,65.6,56.2,50.6,60.0,54.6,50.5,100,95,77,30.07,29.91,6,2,9,0.01
2013-9-24,62.7,55.9,51.3,60.8,55.5,51.3,100,98,90,30.07,29.95,9,3,11,0.01
2013-9-25,56.5,55.0,52.5,56.5,55.0,52.5,100,100,100,29.95,29.85,12,4,14,1.35
2013-9-26,66.0,56.8,51.7,62.1,55.9,51.7,100,97,75,30.05,29.89,8,2,9,0.01
2013-9-27,66.4,56.7,49.8,59.8,53.7,46.7,100,90,66,30.17,30.05,10,2,12,0.00
2013-9-28,62.3,54.0,48.5,56.7,52.6,48.4,100,95,78,30.23,30.15,11,3,13,0.00
2013-9-29,60.7,52.5,45.4,56.0,51.2,45.4,100,96,83,30.18,30.07,7,2,10,0.00
2013-9-30,63.2,54.1,47.8,58.2,53.1,47.8,100,96,78,30.12,30.05,5,1,7,0.00
2013-10-1,66.8,57.9,51.3,59.2,54.9,51.2,100,90,69,30.18,30.09,5,1,7,0.01
2013-10-2,69.3,59.3,52.8,61.0,56.8,52.8,100,92,68,30.18,30.11,4,2,7,0.01
2013-10-3,67.9,60.3,56.0,61.9,57.4,54.3,98,90,72,30.16,30.08,6,1,8,0.00
2013-10-4,73.0,61.5,54.7,63.0,58.5,54.7,100,91,66,30.18,30.11,5,1,5,0.01
2013-10-5,72.6,63.0,57.3,64.3,59.9,56.8,100,90,71,30.14,30.05,7,3,10,0.00
2013-10-6,67.4,60.8,57.3,62.8,59.2,57.2,100,95,83,30.06,29.88,10,4,13,0.26
2013-10-7,67.4,58.6,47.6,63.3,56.9,46.0,100,94,68,29.97,29.80,8,2,9,1.06
2013-10-8,62.8,52.3,44.7,54.9,47.6,43.0,99,85,69,30.20,29.97,11,4,17,0.00
2013-10-9,68.1,54.5,45.8,58.3,49.4,42.0,95,83,63,30.22,30.14,5,1,7,0.00
2013-10-10,64.0,54.5,46.5,55.9,51.1,46.5,100,89,68,30.15,30.05,5,2,7,0.00
2013-10-11,67.0,55.9,46.7,56.3,50.8,46.4,100,84,55,30.05,29.99,5,2,11,0.00
2013-10-12,68.3,57.7,50.6,58.9,53.8,49.9,98,88,67,30.11,30.00,4,1,8,0.00
2013-10-13,64.9,57.7,53.3,59.0,55.6,52.7,100,93,77,30.20,30.10,6,1,9,0.00
2013-10-14,60.0,55.5,52.3,58.7,54.6,51.3,100,97,86,30.22,30.14,10,4,14,0.04
2013-10-15,62.9,54.3,49.7,57.6,53.1,49.7,100,96,81,30.18,30.06,9,3,10,0.00
2013-10-16,61.1,53.8,48.3,57.2,52.4,47.5,100,95,85,30.08,29.98,8,2,10,0.00
2013-10-17,60.3,56.1,51.4,60.3,55.9,51.4,100,99,93,30.00,29.87,6,1,8,0.18
2013-10-18,61.3,51.9,44.7,55.3,50.0,44.7,100,94,71,30.01,29.90,8,3,10,0.02
2013-10-19,56.8,49.6,42.2,48.0,42.8,35.9,99,78,47,29.99,29.90,11,2,11,0.00
2013-10-20,58.2,46.0,35.9,45.0,39.0,24.9,100,80,31,30.13,29.94,8,3,9,0.00
2013-10-21,59.6,48.4,41.7,51.5,45.7,40.6,100,91,68,30.17,30.06,8,2,10,0.00
2013-10-22,64.7,51.2,44.6,51.0,45.9,41.6,98,83,54,30.08,29.83,5,1,9,0.02
2013-10-23,49.2,40.3,29.0,41.7,34.8,26.4,95,82,60,30.06,29.75,11,3,15,0.00
2013-10-24,51.1,37.5,27.4,38.7,31.8,25.5,95,81,59,30.24,30.06,11,2,11,0.00
2013-10-25,43.8,33.9,24.4,31.9,25.2,18.4,92,73,38,30.42,30.22,8,2,15,0.00
2013-10-26,53.0,38.8,26.4,38.9,28.1,21.1,88,68,30,30.40,30.17,6,1,10,0.00
2013-10-27,58.8,48.1,39.5,49.7,44.3,38.2,98,87,68,30.18,30.09,10,2,14,0.00
2013-10-28,56.4,49.2,45.8,53.1,47.7,45.4,100,95,76,30.31,30.15,6,2,8,0.09
2013-10-29,61.6,51.1,44.8,49.6,46.9,44.3,100,87,61,30.38,30.28,5,2,7,0.01
2013-10-30,65.5,56.1,49.7,55.9,52.5,48.3,99,89,66,30.32,30.20,7,1,9,0.00
2013-10-31,55.9,53.4,51.2,55.9,52.4,48.9,100,97,87,30.20,29.90,13,4,20,0.22
2013-11-1,67.3,56.4,45.7,56.6,47.0,28.8,100,76,31,29.91,29.69,21,3,28,0.42
2013-11-2,57.3,43.8,35.3,42.8,38.4,33.8,96,82,51,30.05,29.74,8,2,13,0.02
2013-11-3,53.7,40.2,31.7,37.9,33.3,24.0,97,79,32,30.39,30.04,10,2,14,0.01
2013-11-4,49.2,39.1,33.5,35.8,31.9,29.8,87,76,56,30.53,30.38,14,6,16,0.00
2013-11-5,57.4,43.9,32.7,42.5,29.8,19.6,93,60,31,30.56,30.45,13,4,15,0.00
2013-11-6,54.1,49.0,44.5,53.1,48.7,42.9,100,99,92,30.45,30.18,11,5,15,0.21
2013-11-7,58.8,47.1,32.0,55.1,42.4,25.2,100,85,46,30.19,30.01,10,3,14,0.08
2013-11-8,49.7,37.8,27.5,26.0,22.0,8.8,83,57,21,30.37,30.10,7,2,15,0.00
2013-11-9,51.2,41.2,34.3,32.7,25.9,19.1,66,55,42,30.39,30.30,6,2,8,0.00
2013-11-10,60.4,47.6,39.5,34.8,26.3,13.1,69,44,29,30.32,30.23,8,3,12,0.00
2013-11-11,57.3,46.5,37.3,34.0,29.3,18.2,73,52,35,30.32,30.19,9,2,10,0.00
2013-11-12,51.3,36.7,16.3,36.4,25.0,8.7,87,64,44,30.39,30.11,10,4,20,0.00
2013-11-13,43.1,28.5,14.0,12.5,8.6,0.9,82,47,23,30.63,30.39,10,3,11,0.00
2013-11-14,54.4,39.6,30.1,18.4,12.7,-1.7,47,34,19,30.58,30.38,8,3,9,0.00
2013-11-15,46.3,43.0,37.1,46.3,38.3,-1.8,100,87,18,30.39,30.23,9,3,11,0.02
2013-11-16,55.2,48.7,46.0,54.6,48.7,46.0,100,100,95,30.29,30.21,12,3,18,0.03
2013-11-17,57.0,52.2,49.5,57.0,52.2,49.5,100,100,100,30.23,29.94,15,6,19,0.50
2013-11-18,60.3,49.5,34.6,57.1,41.5,27.8,100,77,42,29.99,29.88,11,3,16,0.03
2013-11-19,50.8,37.9,28.9,31.9,26.1,22.5,83,64,38,30.27,29.97,13,5,22,0.00
2013-11-20,44.4,34.8,27.0,31.0,25.7,22.7,88,70,49,30.49,30.26,17,7,20,0.00
2013-11-21,48.5,44.1,35.7,48.5,43.6,30.8,100,98,82,30.52,30.43,11,5,13,0.34
2013-11-22,62.2,52.7,48.0,58.9,52.4,48.0,100,99,85,30.43,30.13,7,1,8,0.15
2013-11-23,51.1,42.0,24.7,51.1,37.8,17.4,100,86,50,30.17,30.07,14,3,20,0.01
2013-11-24,36.7,25.6,16.0,21.6,10.6,-0.9,88,57,23,30.55,30.15,14,3,16,0.00
2013-11-25,37.9,27.8,17.6,33.1,14.3,-3.4,99,61,19,30.57,30.34,11,4,13,0.01
2013-11-26,43.5,40.1,30.4,43.5,40.0,30.2,100,100,99,30.35,29.66,18,7,24,3.51
2013-11-27,41.8,25.9,14.6,41.8,24.9,12.7,100,96,89,30.20,29.58,11,1,13,0.13
2013-11-28,48.1,31.1,14.0,21.6,14.4,2.2,92,55,20,30.53,30.20,4,1,6,0.06
2013-11-29,54.9,38.5,29.2,31.7,18.2,1.9,70,45,25,30.56,30.48,15,4,15,0.00
2013-11-30,45.9,34.8,26.1,36.8,23.6,17.1,86,64,42,30.57,30.39,18,4,18,0.00
2013-12-1,53.4,42.2,35.3,38.8,32.7,20.8,94,71,39,30.39,30.01,11,2,11,0.00
2013-12-2,49.2,41.3,35.0,44.2,38.0,28.7,99,88,75,30.01,29.83,7,1,7,0.01
2013-12-3,46.0,43.8,41.1,46.0,43.8,41.0,100,100,99,29.98,29.86,8,2,8,0.06
2013-12-4,59.7,51.0,46.0,56.1,50.6,46.0,100,99,84,30.10,29.97,12,1,12,0.02
2013-12-5,58.1,58.0,57.9,58.1,58.0,57.9,100,100,100,30.02,30.02,4,1,6,0.92
2013-12-6,59.1,58.1,53.6,58.9,58.0,53.6,100,100,98,30.04,29.93,22,3,22,1.28
2013-12-7,55.9,48.0,38.7,53.7,47.6,38.7,100,98,83,30.29,29.98,18,4,19,0.02
2013-12-8,50.1,39.0,33.4,50.1,39.0,33.4,100,100,100,30.32,30.24,22,8,24,0.50
2013-12-9,53.3,48.7,43.9,53.3,48.5,41.7,100,99,86,30.25,30.01,10,2,18,0.79
2013-12-10,51.1,39.6,25.2,51.1,35.1,12.3,100,84,57,30.29,29.89,12,4,20,0.26
2013-12-11,47.5,34.6,24.1,18.0,10.4,-4.4,71,38,20,30.49,30.29,7,2,16,0.00
2013-12-12,39.8,29.4,20.6,19.3,11.1,1.2,86,50,25,30.46,30.30,8,3,15,0.00
2013-12-13,46.7,34.9,22.6,21.2,14.9,7.5,73,45,27,30.45,30.29,9,3,13,0.00
2013-12-14,46.7,39.4,33.1,46.7,37.0,19.0,100,92,55,30.30,29.84,17,6,22,0.90
2013-12-15,42.1,33.1,25.1,42.1,30.8,23.5,100,92,72,30.16,29.77,10,4,16,0.00
2013-12-16,47.7,35.6,25.3,29.8,25.9,22.7,93,70,45,30.29,30.15,10,3,13,0.01
2013-12-17,53.3,39.7,29.0,33.5,28.8,21.1,79,66,43,30.23,30.03,12,4,19,0.00
2013-12-18,45.9,33.9,22.1,22.2,9.7,0.4,76,42,17,30.40,30.06,15,3,17,0.00
2013-12-19,61.8,46.4,39.3,27.7,22.3,16.2,50,39,25,30.40,30.24,12,2,12,0.00
2013-12-20,57.8,46.3,38.9,48.1,32.6,20.2,98,62,26,30.26,30.18,10,2,13,0.00
2013-12-21,57.9,53.5,48.6,57.8,53.5,48.1,100,100,98,30.19,29.97,22,8,32,0.79
2013-12-22,58.0,53.3,49.9,58.0,53.3,49.9,100,100,100,30.04,29.94,19,4,31,2.34
2013-12-23,51.0,43.5,30.8,51.0,43.1,30.8,100,99,90,30.17,30.01,9,3,12,1.06
2013-12-24,32.8,26.3,19.3,30.8,21.6,10.0,100,83,53,30.45,30.16,10,3,14,0.00
2013-12-25,35.5,27.4,19.8,22.5,16.5,3.9,86,64,34,30.54,30.43,9,3,9,0.00
2013-12-26,45.4,33.6,24.3,27.9,19.1,14.7,83,56,38,30.45,30.35,9,3,11,0.00
2013-12-27,47.8,37.3,28.6,27.7,22.8,16.5,76,57,33,30.50,30.39,8,2,10,0.00
2013-12-28,46.0,40.0,33.0,37.1,24.7,4.7,100,59,19,30.46,30.06,24,5,27,0.43
2013-12-29,49.6,41.1,32.8,47.2,39.6,29.9,100,95,79,30.06,29.85,18,6,24,0.91
2013-12-30,42.1,36.2,32.1,36.3,32.9,26.9,97,88,72,30.18,29.98,13,3,21,0.00
2013-12-31,39.1,31.2,26.2,27.6,20.9,13.4,88,67,44,30.44,30.15,10,3,13,0.00
2014-1-1,37.9,33.0,29.4,30.5,23.0,16.3,87,67,51,30.43,30.20,9,3,11,0.00
2014-1-2,45.0,34.5,13.0,45.0,33.6,11.5,100,97,86,30.21,29.70,14,3,22,0.20